Time;durP1;ratioP1;P1;durP2;ratioP2;P2;SDS_P1;SDS_P2;PMS_P1;PMS_P2;Temp;Humidity;BMP_temperature;BMP_pressure;BME280_temperature;BME280_humidity;BME280_pressure;Samples;Min_cycle;Max_cycle;Signal;HPM_P1;HPM_P2
2023/07/23 00:00:16;;;;;;;3.67;2.80;;;22.30;99.90;;;;;;1888561;75;21113;-84
2023/07/23 00:03:09;;;;;;;3.77;2.40;;;22.30;99.90;;;;;;1913861;75;21187;-84
2023/07/23 00:08:43;;;;;;;3.30;2.27;;;22.20;99.90;;;;;;1926719;72;23480;-83
2023/07/23 00:14:13;;;;;;;3.00;2.47;;;22.20;99.90;;;;;;1933472;72;22309;-83
2023/07/23 00:19:43;;;;;;;4.30;2.75;;;22.10;99.90;;;;;;1940114;72;22775;-83
2023/07/23 00:25:12;;;;;;;3.45;2.65;;;22.00;99.90;;;;;;1934588;72;22138;-83
2023/07/23 00:28:03;;;;;;;4.05;2.90;;;22.00;99.90;;;;;;1892832;74;21095;-83
2023/07/23 00:30:55;;;;;;;4.12;2.77;;;22.00;99.90;;;;;;1879469;75;21499;-83
2023/07/23 00:33:46;;;;;;;4.90;3.20;;;21.90;99.90;;;;;;1892422;74;21138;-83
2023/07/23 00:36:37;;;;;;;7.60;3.25;;;21.90;99.90;;;;;;1893113;75;21204;-83
2023/07/23 00:39:29;;;;;;;6.17;3.05;;;21.80;99.90;;;;;;1887775;75;21389;-83
2023/07/23 00:42:22;;;;;;;3.67;2.92;;;21.80;99.90;;;;;;1890536;74;21127;-83
2023/07/23 00:45:13;;;;;;;3.60;2.50;;;21.80;99.90;;;;;;1882314;75;21118;-83
2023/07/23 00:48:06;;;;;;;3.58;2.33;;;21.90;99.90;;;;;;1903792;74;21118;-83
2023/07/23 00:50:57;;;;;;;5.40;3.00;;;21.90;99.90;;;;;;1877232;75;21127;-84
2023/07/23 00:53:49;;;;;;;4.65;2.90;;;21.90;99.90;;;;;;1893251;75;21153;-83
2023/07/23 00:59:19;;;;;;;4.37;2.52;;;21.80;99.90;;;;;;1937464;72;22168;-84
2023/07/23 01:02:10;;;;;;;5.42;2.25;;;21.50;99.90;;;;;;1893072;75;21158;-83
2023/07/23 01:05:03;;;;;;;4.33;2.05;;;21.40;99.90;;;;;;1893514;75;21171;-83
2023/07/23 01:07:54;;;;;;;3.12;2.47;;;21.50;99.90;;;;;;1888270;75;21581;-83
2023/07/23 01:10:47;;;;;;;4.80;2.35;;;21.60;99.90;;;;;;1883429;75;21143;-83
2023/07/23 01:13:40;;;;;;;3.58;2.45;;;21.60;99.90;;;;;;1886097;75;21768;-83
2023/07/23 01:16:32;;;;;;;4.53;2.37;;;21.40;99.90;;;;;;1891541;75;21114;-84
2023/07/23 01:19:26;;;;;;;3.42;2.50;;;21.30;99.90;;;;;;1899633;75;21679;-83
2023/07/23 01:22:17;;;;;;;5.25;2.45;;;21.30;99.90;;;;;;1821011;78;21114;-85
2023/07/23 01:25:09;;;;;;;4.25;2.70;;;21.40;99.90;;;;;;1833199;78;21203;-83
2023/07/23 01:28:00;;;;;;;3.92;2.45;;;21.40;99.90;;;;;;1892818;75;21102;-83
2023/07/23 01:30:53;;;;;;;5.12;2.40;;;21.50;99.90;;;;;;1874151;75;21753;-83
2023/07/23 01:33:45;;;;;;;3.12;2.17;;;21.70;99.90;;;;;;1873175;75;21131;-83
2023/07/23 01:39:16;;;;;;;5.12;2.70;;;21.60;99.90;;;;;;1944344;72;22232;-83
2023/07/23 01:42:10;;;;;;;4.97;2.70;;;21.50;99.90;;;;;;1899067;75;21107;-83
2023/07/23 01:45:04;;;;;;;2.80;2.25;;;21.30;99.90;;;;;;1892649;75;21244;-83
2023/07/23 01:47:55;;;;;;;3.62;2.10;;;21.30;99.90;;;;;;1897777;75;21123;-83
2023/07/23 01:53:28;;;;;;;3.00;2.08;;;21.20;99.90;;;;;;1931175;72;22174;-83
2023/07/23 01:58:59;;;;;;;3.83;2.58;;;21.10;99.90;;;;;;1925242;72;22250;-83
2023/07/23 02:04:29;;;;;;;4.08;2.45;;;20.90;99.90;;;;;;1933373;72;22231;-83
2023/07/23 02:07:21;;;;;;;4.15;2.50;;;20.90;99.90;;;;;;1887487;75;21196;-83
2023/07/23 02:10:13;;;;;;;3.33;2.50;;;20.80;99.90;;;;;;1900034;75;21083;-83
2023/07/23 02:13:04;;;;;;;3.17;2.20;;;20.90;99.90;;;;;;1897412;75;21101;-83
2023/07/23 02:18:42;;;;;;;5.80;2.40;;;20.90;99.90;;;;;;1916523;72;22156;-83
2023/07/23 02:21:33;;;;;;;5.10;2.60;;;20.80;99.90;;;;;;1884724;75;21241;-83
2023/07/23 02:24:25;;;;;;;3.77;2.60;;;20.70;99.90;;;;;;1889738;75;21114;-83
2023/07/23 02:29:55;;;;;;;4.70;2.50;;;20.80;99.90;;;;;;1934375;72;22294;-83
2023/07/23 02:32:46;;;;;;;3.60;2.60;;;20.90;99.90;;;;;;1887852;74;21141;-83
2023/07/23 02:41:00;;;;;;;5.00;2.42;;;20.90;99.90;;;;;;1947009;72;22218;-83
2023/07/23 02:43:51;;;;;;;5.58;2.80;;;20.90;99.90;;;;;;1949885;72;21159;-83
2023/07/23 02:49:21;;;;;;;3.50;2.12;;;20.90;99.90;;;;;;1927683;72;22291;-83
2023/07/23 02:52:13;;;;;;;3.72;2.45;;;20.80;99.90;;;;;;1895151;75;21176;-83
2023/07/23 02:55:04;;;;;;;3.50;2.45;;;20.80;99.90;;;;;;1887096;75;21098;-84
2023/07/23 02:57:57;;;;;;;3.95;2.72;;;20.80;99.90;;;;;;1895900;75;21707;-82
2023/07/23 03:00:49;;;;;;;3.62;2.75;;;20.80;99.90;;;;;;1884299;75;21160;-82
2023/07/23 03:03:41;;;;;;;3.33;2.60;;;20.80;99.90;;;;;;1906697;75;21126;-82
2023/07/23 03:09:12;;;;;;;4.30;2.60;;;20.50;99.90;;;;;;1935250;72;22626;-82
2023/07/23 03:12:07;;;;;;;3.33;2.52;;;20.60;99.90;;;;;;1883738;75;21229;-82
2023/07/23 03:14:58;;;;;;;4.62;2.92;;;20.60;99.90;;;;;;1886926;75;21151;-82
2023/07/23 03:17:51;;;;;;;5.12;3.12;;;20.60;99.90;;;;;;1876540;75;21095;-82
2023/07/23 03:20:42;;;;;;;3.12;2.50;;;20.60;99.90;;;;;;1880845;75;21168;-82
2023/07/23 03:23:33;;;;;;;4.72;3.10;;;20.50;99.90;;;;;;1900294;75;21099;-82
2023/07/23 03:26:25;;;;;;;4.22;2.37;;;20.50;99.90;;;;;;1898475;75;21130;-82
2023/07/23 03:29:18;;;;;;;3.10;2.60;;;20.50;99.90;;;;;;1885002;75;21126;-82
2023/07/23 03:32:10;;;;;;;3.72;2.50;;;20.60;99.90;;;;;;1886976;75;21083;-81
2023/07/23 03:35:01;;;;;;;3.92;2.83;;;20.60;99.90;;;;;;1891041;75;21107;-82
2023/07/23 03:38:04;;;;;;;3.55;2.67;;;20.60;99.90;;;;;;1897272;75;21099;-81
2023/07/23 03:40:57;;;;;;;3.45;2.83;;;20.60;99.90;;;;;;1898411;75;21138;-81
2023/07/23 03:43:48;;;;;;;5.55;2.80;;;20.60;99.90;;;;;;1849589;77;21152;-81
2023/07/23 03:49:19;;;;;;;4.00;3.00;;;20.60;99.90;;;;;;1936178;72;22220;-82
2023/07/23 03:52:11;;;;;;;5.08;3.02;;;20.60;99.90;;;;;;1905294;75;21188;-82
2023/07/23 03:57:47;;;;;;;4.45;3.05;;;20.60;99.90;;;;;;1936595;72;22292;-81
2023/07/23 04:00:40;;;;;;;5.03;3.30;;;20.50;99.90;;;;;;1901077;75;21055;-81
2023/07/23 04:03:32;;;;;;;4.10;3.05;;;20.30;99.90;;;;;;1905124;75;21090;-81
2023/07/23 04:06:25;;;;;;;4.75;3.02;;;20.00;99.90;;;;;;1879758;75;21135;-81
2023/07/23 04:12:01;;;;;;;6.03;3.30;;;20.00;99.90;;;;;;1940916;72;22158;-82
2023/07/23 04:14:52;;;;;;;5.67;3.80;;;20.00;99.90;;;;;;1887067;75;21163;-82
2023/07/23 04:20:23;;;;;;;4.85;3.15;;;19.90;99.90;;;;;;1927028;72;22259;-81
2023/07/23 04:23:14;;;;;;;4.83;3.33;;;19.90;99.90;;;;;;1897432;75;21161;-82
2023/07/23 04:26:05;;;;;;;4.25;3.20;;;19.90;99.90;;;;;;1902407;75;21082;-82
2023/07/23 04:28:57;;;;;;;4.50;2.98;;;19.90;99.90;;;;;;1851836;77;21208;-82
2023/07/23 04:34:31;;;;;;;3.95;3.00;;;19.80;99.90;;;;;;1939048;72;22181;-81
2023/07/23 04:37:22;;;;;;;4.12;2.95;;;19.70;99.90;;;;;;1902203;75;21106;-81
2023/07/23 04:40:14;;;;;;;4.33;3.20;;;19.70;99.90;;;;;;1895418;75;21206;-81
2023/07/23 04:45:51;;;;;;;4.45;3.15;;;19.50;99.90;;;;;;1945119;72;22604;-81
2023/07/23 04:48:43;;;;;;;4.35;3.00;;;19.60;99.90;;;;;;1917485;74;21107;-81
2023/07/23 04:54:15;;;;;;;3.27;2.70;;;19.80;99.90;;;;;;1938024;72;22253;-81
2023/07/23 04:57:07;;;;;;;4.45;3.15;;;19.90;99.90;;;;;;1910192;74;21168;-81
2023/07/23 04:59:59;;;;;;;3.60;2.65;;;20.00;99.90;;;;;;1899270;75;21130;-81
2023/07/23 05:05:29;;;;;;;4.83;2.85;;;20.10;99.90;;;;;;1927532;72;22150;-82
2023/07/23 05:11:06;;;;;;;3.40;2.90;;;20.20;99.90;;;;;;1936687;72;22209;-82
2023/07/23 05:16:37;;;;;;;4.72;3.02;;;20.30;99.90;;;;;;1929845;72;22189;-81
2023/07/23 05:19:28;;;;;;;5.05;3.08;;;20.30;99.90;;;;;;1926832;73;21050;-81
2023/07/23 05:25:03;;;;;;;6.17;3.52;;;20.50;99.90;;;;;;1943559;72;22478;-82
2023/07/23 05:27:54;;;;;;;4.65;3.37;;;20.50;99.90;;;;;;1895576;75;21166;-80
2023/07/23 05:30:45;;;;;;;6.08;3.60;;;20.60;99.90;;;;;;1894695;75;21104;-81
2023/07/23 05:33:37;;;;;;;4.80;3.40;;;20.60;99.90;;;;;;1901266;75;21100;-80
2023/07/23 05:39:09;;;;;;;6.22;3.62;;;20.70;99.90;;;;;;1931713;72;22149;-79
2023/07/23 05:42:00;;;;;;;4.22;2.92;;;20.80;99.90;;;;;;1898224;75;21176;-79
2023/07/23 05:44:52;;;;;;;6.20;3.45;;;20.70;99.90;;;;;;1867615;75;21170;-79
2023/07/23 05:50:24;;;;;;;6.40;3.80;;;20.70;99.90;;;;;;1941267;72;22223;-79
2023/07/23 05:53:15;;;;;;;6.33;3.47;;;20.80;99.90;;;;;;1904900;75;21143;-79
2023/07/23 05:56:06;;;;;;;4.62;3.22;;;20.80;99.90;;;;;;1894504;75;21152;-79
2023/07/23 05:58:58;;;;;;;4.22;3.35;;;20.90;99.90;;;;;;1912202;75;21105;-79
2023/07/23 06:01:50;;;;;;;4.75;3.35;;;20.90;99.90;;;;;;1891581;75;21052;-79
2023/07/23 06:04:41;;;;;;;4.78;3.50;;;21.00;99.90;;;;;;1914865;75;21131;-80
2023/07/23 06:07:33;;;;;;;7.08;3.50;;;20.90;99.90;;;;;;1897379;75;21170;-80
2023/07/23 06:10:24;;;;;;;4.45;3.25;;;20.90;99.90;;;;;;1910827;75;21098;-79
2023/07/23 06:13:15;;;;;;;4.83;3.30;;;21.00;99.90;;;;;;1889997;75;21103;-80
2023/07/23 06:16:07;;;;;;;5.75;3.33;;;21.00;99.90;;;;;;1904359;75;21090;-80
2023/07/23 06:18:58;;;;;;;3.90;3.00;;;21.10;99.90;;;;;;1897182;75;21209;-79
2023/07/23 06:24:29;;;;;;;4.83;3.90;;;21.20;99.90;;;;;;1930388;72;22248;-79
2023/07/23 06:27:20;;;;;;;4.72;3.33;;;21.20;99.90;;;;;;1903453;75;21109;-79
2023/07/23 06:30:12;;;;;;;4.83;3.47;;;21.30;99.90;;;;;;1887608;75;21117;-79
2023/07/23 06:35:45;;;;;;;5.70;3.72;;;21.40;99.90;;;;;;1927024;72;22237;-81
2023/07/23 06:38:36;;;;;;;4.83;3.62;;;21.50;99.90;;;;;;1892993;74;21380;-79
2023/07/23 06:44:06;;;;;;;4.97;3.83;;;21.60;99.90;;;;;;1947484;72;22164;-79
2023/07/23 06:46:58;;;;;;;5.42;4.00;;;21.60;99.90;;;;;;1918774;73;21167;-79
2023/07/23 06:49:49;;;;;;;5.62;3.75;;;21.50;99.90;;;;;;1929901;73;21152;-79
2023/07/23 06:52:40;;;;;;;4.87;3.95;;;21.60;99.90;;;;;;1920737;74;21117;-79
2023/07/23 06:55:31;;;;;;;6.75;4.53;;;21.70;99.90;;;;;;1916379;75;21113;-80
2023/07/23 06:58:23;;;;;;;8.03;4.40;;;21.80;99.90;;;;;;1925077;73;21098;-80
2023/07/23 07:03:56;;;;;;;7.45;3.90;;;21.90;99.90;;;;;;1914998;72;22199;-80
2023/07/23 07:06:47;;;;;;;6.87;4.40;;;22.00;99.90;;;;;;1902290;75;21125;-80
2023/07/23 07:12:18;;;;;;;5.72;3.90;;;22.10;99.90;;;;;;1926082;72;22212;-80
2023/07/23 07:15:11;;;;;;;5.40;3.98;;;22.20;99.90;;;;;;1910243;74;21115;-80
2023/07/23 07:18:03;;;;;;;5.58;3.75;;;22.20;99.90;;;;;;1906034;74;21103;-80
2023/07/23 07:23:38;;;;;;;6.10;4.50;;;22.40;99.90;;;;;;1939628;72;22272;-79
2023/07/23 07:29:08;;;;;;;6.00;3.95;;;22.60;99.90;;;;;;1945342;72;22221;-79
2023/07/23 07:32:00;;;;;;;6.67;3.98;;;22.70;99.90;;;;;;1882494;75;21104;-80
2023/07/23 07:37:35;;;;;;;5.90;3.85;;;23.00;99.90;;;;;;1939234;72;22146;-79
2023/07/23 07:40:27;;;;;;;7.97;4.08;;;23.10;99.90;;;;;;1877534;75;21184;-80
2023/07/23 07:43:18;;;;;;;6.67;4.08;;;23.20;99.90;;;;;;1890975;75;21219;-80
2023/07/23 07:46:10;;;;;;;5.35;4.12;;;23.30;99.90;;;;;;1886713;75;21152;-80
2023/07/23 07:49:02;;;;;;;6.72;3.75;;;23.40;99.90;;;;;;1884237;75;21090;-80
2023/07/23 07:54:34;;;;;;;5.78;4.22;;;23.60;99.90;;;;;;1931758;72;22184;-79
2023/07/23 08:00:07;;;;;;;8.05;4.60;;;23.70;99.90;;;;;;1938295;72;22188;-79
2023/07/23 08:03:01;;;;;;;7.35;4.85;;;23.80;99.90;;;;;;1901880;75;21135;-79
2023/07/23 08:08:37;;;;;;;6.20;4.75;;;24.00;99.90;;;;;;1944133;72;22517;-79
2023/07/23 08:11:29;;;;;;;6.85;4.47;;;24.10;99.90;;;;;;1915787;75;21054;-79
2023/07/23 08:17:02;;;;;;;4.95;4.12;;;24.20;99.90;;;;;;1936429;72;22278;-79
2023/07/23 08:19:54;;;;;;;6.15;4.10;;;24.20;99.90;;;;;;1892070;74;21171;-80
2023/07/23 08:22:46;;;;;;;6.20;4.75;;;24.30;99.90;;;;;;1912442;75;21122;-80
2023/07/23 08:28:21;;;;;;;6.42;4.25;;;24.50;99.90;;;;;;1916585;72;22211;-80
2023/07/23 08:31:14;;;;;;;7.22;4.95;;;24.60;99.90;;;;;;1910836;74;21134;-79
2023/07/23 08:34:06;;;;;;;8.10;4.92;;;24.70;99.90;;;;;;1914282;74;21106;-80
2023/07/23 08:39:37;;;;;;;6.60;5.10;;;24.90;99.90;;;;;;1944588;72;22251;-79
2023/07/23 08:42:54;;;;;;;7.45;5.75;;;25.10;99.90;;;;;;1900101;74;21059;-79
2023/07/23 08:49:05;;;;;;;5.80;4.40;;;25.20;99.90;;;;;;1943783;72;22181;-79
2023/07/23 08:51:56;;;;;;;5.85;4.20;;;25.20;99.90;;;;;;1890845;74;21155;-80
2023/07/23 08:54:48;;;;;;;5.58;4.67;;;25.30;99.90;;;;;;1891761;75;21096;-80
2023/07/23 08:57:41;;;;;;;7.53;4.67;;;25.40;99.90;;;;;;1895460;75;21082;-80
2023/07/23 09:00:33;;;;;;;6.03;4.78;;;25.50;99.90;;;;;;1911781;75;21091;-80
2023/07/23 09:03:25;;;;;;;6.25;4.67;;;25.60;99.90;;;;;;1889828;75;21055;-80
2023/07/23 09:08:58;;;;;;;6.62;5.15;;;25.80;99.90;;;;;;1962307;72;22687;-80
2023/07/23 09:14:28;;;;;;;6.53;4.37;;;25.90;99.90;;;;;;1943097;72;22733;-79
2023/07/23 09:17:20;;;;;;;6.53;4.92;;;26.00;99.90;;;;;;1909055;75;21125;-79
2023/07/23 09:20:13;;;;;;;7.62;5.10;;;26.10;99.90;;;;;;1914909;75;21111;-79
2023/07/23 09:23:08;;;;;;;8.00;5.08;;;26.30;99.90;;;;;;1910622;74;21135;-79
2023/07/23 09:26:01;;;;;;;6.80;4.95;;;26.50;99.90;;;;;;1916203;74;21059;-79
2023/07/23 09:28:53;;;;;;;7.95;4.58;;;26.60;99.90;;;;;;1916753;74;21106;-79
2023/07/23 09:34:26;;;;;;;7.10;5.30;;;26.90;99.90;;;;;;1949483;72;22247;-80
2023/07/23 09:37:18;;;;;;;6.28;5.03;;;27.20;99.90;;;;;;1899937;74;21154;-79
2023/07/23 09:40:12;;;;;;;7.53;5.20;;;27.30;99.90;;;;;;1888390;75;21604;-79
2023/07/23 09:43:03;;;;;;;6.22;5.20;;;27.40;99.90;;;;;;1906589;75;21118;-82
2023/07/23 09:45:55;;;;;;;9.03;5.37;;;27.60;99.90;;;;;;1899467;75;21099;-80
2023/07/23 09:48:48;;;;;;;6.78;5.40;;;27.70;99.90;;;;;;1906245;75;21224;-80
2023/07/23 09:54:22;;;;;;;6.87;6.12;;;28.00;99.90;;;;;;1935809;72;22252;-80
2023/07/23 09:57:14;;;;;;;8.50;6.47;;;28.20;99.90;;;;;;1899344;74;21497;-79
2023/07/23 10:00:07;;;;;;;7.25;6.20;;;28.30;99.90;;;;;;1893435;74;21145;-80
2023/07/23 10:03:02;;;;;;;10.03;7.72;;;28.40;99.90;;;;;;1901841;75;21192;-80
2023/07/23 10:05:55;;;;;;;10.45;7.90;;;28.50;99.90;;;;;;1898013;74;21105;-80
2023/07/23 10:08:46;;;;;;;8.78;7.28;;;28.60;99.90;;;;;;1913354;74;21219;-79
2023/07/23 10:14:21;;;;;;;12.25;8.43;;;28.90;99.80;;;;;;1944507;72;22186;-80
2023/07/23 10:17:13;;;;;;;10.88;8.80;;;29.00;99.20;;;;;;1894303;75;21526;-79
2023/07/23 10:20:08;;;;;;;10.78;9.15;;;29.10;98.50;;;;;;1887788;75;21209;-80
2023/07/23 10:23:05;;;;;;;10.32;8.38;;;29.20;97.90;;;;;;1891933;75;21199;-79
2023/07/23 10:26:22;;;;;;;11.05;8.23;;;29.40;97.70;;;;;;1883211;75;21117;-79
2023/07/23 10:29:18;;;;;;;9.75;8.23;;;29.60;97.90;;;;;;1878115;75;21090;-79
2023/07/23 10:35:13;;;;;;;11.83;9.30;;;29.80;97.10;;;;;;1923165;72;28602;-79
2023/07/23 10:44:03;;;;;;;11.35;9.55;;;30.20;95.10;;;;;;1947757;72;22748;-79
2023/07/23 10:46:55;;;;;;;12.18;10.03;;;30.40;95.00;;;;;;1927837;73;21134;-79
2023/07/23 10:52:30;;;;;;;11.73;9.95;;;30.80;92.90;;;;;;1944505;72;22344;-79
2023/07/23 10:55:37;;;;;;;11.93;9.73;;;31.00;92.40;;;;;;1915871;73;21091;-79
2023/07/23 11:01:16;;;;;;;12.20;9.85;;;31.20;91.30;;;;;;1942195;72;22090;-79
2023/07/23 11:07:00;;;;;;;13.72;10.10;;;31.60;90.10;;;;;;1940178;72;22145;-79
2023/07/23 11:09:53;;;;;;;13.22;10.05;;;31.60;89.50;;;;;;1902816;75;21082;-79
2023/07/23 11:15:25;;;;;;;12.03;9.93;;;31.60;85.90;;;;;;1941356;72;22262;-78
2023/07/23 11:18:17;;;;;;;11.75;10.43;;;31.60;84.00;;;;;;1925870;73;21199;-79
2023/07/23 11:21:14;;;;;;;13.13;9.70;;;31.60;84.90;;;;;;1929151;73;21113;-79
2023/07/23 11:24:05;;;;;;;12.18;9.65;;;31.70;85.20;;;;;;1915883;75;21358;-79
2023/07/23 11:29:37;;;;;;;11.73;10.15;;;31.70;83.00;;;;;;1924589;72;22177;-79
2023/07/23 11:32:28;;;;;;;12.65;10.40;;;31.50;81.20;;;;;;1913086;73;21106;-78
2023/07/23 11:35:21;;;;;;;12.98;10.80;;;31.50;80.60;;;;;;1899235;75;21219;-78
2023/07/23 11:38:12;;;;;;;11.78;9.93;;;31.50;80.40;;;;;;1896176;75;21101;-78
2023/07/23 11:41:04;;;;;;;11.88;10.35;;;31.80;79.90;;;;;;1900114;75;21078;-78
2023/07/23 11:43:56;;;;;;;12.28;10.30;;;32.00;78.70;;;;;;1907238;73;21156;-78
2023/07/23 11:46:48;;;;;;;12.13;10.30;;;32.10;76.20;;;;;;1912313;75;21100;-79
2023/07/23 11:49:39;;;;;;;12.18;10.78;;;32.10;76.70;;;;;;1903306;74;21673;-78
2023/07/23 11:52:30;;;;;;;10.88;9.63;;;32.20;77.30;;;;;;1904674;75;21114;-78
2023/07/23 11:58:03;;;;;;;11.80;9.85;;;31.40;82.70;;;;;;1936420;72;22182;-78
2023/07/23 12:00:55;;;;;;;10.85;9.43;;;31.20;83.20;;;;;;1916545;73;21047;-79
2023/07/23 12:03:48;;;;;;;10.82;9.73;;;31.10;83.60;;;;;;1928223;73;21079;-78
2023/07/23 12:06:40;;;;;;;10.48;9.20;;;31.20;83.00;;;;;;1938788;73;21152;-78
2023/07/23 12:09:33;;;;;;;12.63;10.43;;;31.00;82.00;;;;;;1941384;73;21159;-79
2023/07/23 12:12:24;;;;;;;11.75;9.53;;;31.00;82.70;;;;;;1924609;73;21130;-78
2023/07/23 12:15:17;;;;;;;10.93;9.25;;;31.20;82.50;;;;;;1920057;73;21171;-78
2023/07/23 12:18:10;;;;;;;12.00;9.08;;;31.30;82.50;;;;;;1929204;73;22246;-78
2023/07/23 12:21:02;;;;;;;11.20;9.00;;;31.20;83.90;;;;;;1936506;73;21078;-78
2023/07/23 12:23:54;;;;;;;12.07;10.30;;;31.10;84.10;;;;;;1915881;75;21415;-78
2023/07/23 12:29:30;;;;;;;13.47;11.50;;;31.00;82.00;;;;;;1926301;72;38332;-78
2023/07/23 12:32:21;;;;;;;11.95;10.45;;;31.30;79.70;;;;;;1905506;75;21113;-78
2023/07/23 12:35:13;;;;;;;11.97;10.18;;;31.60;79.00;;;;;;1912493;75;21568;-78
2023/07/23 12:38:04;;;;;;;12.93;10.90;;;31.70;78.70;;;;;;1915946;75;21660;-78
2023/07/23 12:40:56;;;;;;;13.43;9.68;;;31.80;77.30;;;;;;1909935;75;21150;-78
2023/07/23 12:43:47;;;;;;;12.55;10.45;;;31.70;77.30;;;;;;1893389;75;21171;-78
2023/07/23 12:49:17;;;;;;;13.78;10.72;;;32.00;77.60;;;;;;1940913;72;22227;-78
2023/07/23 12:52:11;;;;;;;12.58;10.30;;;32.10;77.90;;;;;;1909626;74;21099;-78
2023/07/23 12:55:02;;;;;;;13.58;10.82;;;32.10;76.40;;;;;;1914968;75;21114;-78
2023/07/23 12:57:54;;;;;;;12.37;10.48;;;32.20;75.70;;;;;;1909129;75;21157;-78
2023/07/23 13:00:47;;;;;;;12.78;10.18;;;32.40;74.80;;;;;;1905123;75;21095;-78
2023/07/23 13:03:38;;;;;;;11.33;10.13;;;32.50;73.90;;;;;;1911040;74;21130;-78
2023/07/23 13:06:30;;;;;;;14.83;10.78;;;32.80;75.40;;;;;;1898826;75;21131;-78
2023/07/23 13:09:22;;;;;;;13.45;10.85;;;32.80;74.00;;;;;;1899304;75;21106;-78
2023/07/23 13:12:13;;;;;;;13.38;11.03;;;32.70;74.00;;;;;;1885674;75;21085;-78
2023/07/23 13:15:06;;;;;;;13.32;11.28;;;32.80;72.40;;;;;;1890105;75;21193;-78
2023/07/23 13:17:59;;;;;;;12.55;10.55;;;32.80;70.80;;;;;;1884015;75;21057;-78
2023/07/23 13:20:50;;;;;;;12.90;11.10;;;33.00;70.20;;;;;;1890861;75;21180;-78
2023/07/23 13:23:41;;;;;;;12.65;10.50;;;33.20;69.10;;;;;;1897469;75;21123;-78
2023/07/23 13:29:13;;;;;;;11.30;9.85;;;33.10;72.30;;;;;;1935970;72;22181;-78
2023/07/23 13:34:44;;;;;;;11.10;10.00;;;33.00;71.80;;;;;;1929819;72;22722;-78
2023/07/23 13:37:35;;;;;;;12.03;10.72;;;33.10;72.60;;;;;;1893007;74;21118;-78
2023/07/23 13:43:06;;;;;;;14.25;11.15;;;33.50;69.40;;;;;;1931485;72;22281;-78
2023/07/23 13:45:57;;;;;;;12.50;10.35;;;33.70;67.50;;;;;;1904379;74;21169;-78
2023/07/23 13:48:49;;;;;;;12.50;11.12;;;33.90;67.60;;;;;;1897940;74;21695;-78
2023/07/23 13:51:40;;;;;;;14.45;10.65;;;34.00;67.20;;;;;;1905652;74;21053;-80
2023/07/23 13:54:31;;;;;;;12.43;10.13;;;34.10;67.70;;;;;;1892283;74;21058;-78
2023/07/23 13:57:23;;;;;;;12.50;10.28;;;34.00;67.80;;;;;;1899050;74;21523;-79
2023/07/23 14:00:15;;;;;;;13.10;10.15;;;34.30;68.00;;;;;;1888520;76;21489;-78
2023/07/23 14:05:46;;;;;;;10.78;9.55;;;34.70;68.50;;;;;;1961748;72;22278;-78
2023/07/23 14:08:37;;;;;;;12.70;10.18;;;34.90;68.20;;;;;;1924412;73;21176;-78
2023/07/23 14:14:13;;;;;;;12.78;10.68;;;35.40;67.30;;;;;;1922805;72;28032;-78
2023/07/23 14:19:44;;;;;;;11.35;9.83;;;35.60;65.60;;;;;;1943514;72;22182;-79
2023/07/23 14:25:14;;;;;;;12.65;9.95;;;35.70;64.70;;;;;;1941748;72;22272;-78
2023/07/23 14:28:06;;;;;;;11.63;9.88;;;35.90;64.90;;;;;;1900324;75;21234;-78
2023/07/23 14:30:57;;;;;;;11.00;9.85;;;36.10;64.40;;;;;;1885095;75;21114;-78
2023/07/23 14:36:34;;;;;;;11.68;10.55;;;36.50;60.70;;;;;;1946780;72;22119;-80
2023/07/23 14:39:25;;;;;;;10.95;9.80;;;36.80;62.20;;;;;;1910051;75;21101;-80
2023/07/23 14:42:16;;;;;;;10.82;9.65;;;36.60;60.20;;;;;;1903218;75;21114;-80
2023/07/23 14:45:09;;;;;;;12.03;10.43;;;36.50;60.30;;;;;;1901307;75;21481;-80
2023/07/23 14:50:40;;;;;;;13.32;10.68;;;36.80;59.30;;;;;;1934844;72;22099;-80
2023/07/23 14:53:31;;;;;;;13.58;12.05;;;36.60;57.70;;;;;;1895984;74;21212;-78
2023/07/23 14:59:03;;;;;;;11.53;10.20;;;37.90;56.60;;;;;;1945854;72;22208;-77
2023/07/23 15:04:34;;;;;;;12.55;11.25;;;38.60;54.40;;;;;;1935728;72;22192;-77
2023/07/23 15:10:04;;;;;;;15.08;11.33;;;38.80;51.70;;;;;;1938119;72;22310;-78
2023/07/23 15:12:58;;;;;;;13.03;11.68;;;38.40;51.60;;;;;;1895735;74;21156;-77
2023/07/23 15:15:50;;;;;;;14.13;11.90;;;38.50;51.60;;;;;;1898841;75;21104;-77
2023/07/23 15:18:42;;;;;;;13.22;11.83;;;38.80;50.30;;;;;;1906648;75;21122;-77
2023/07/23 15:24:16;;;;;;;15.23;12.00;;;40.20;48.60;;;;;;1918719;72;22470;-78
2023/07/23 15:29:47;;;;;;;12.53;11.03;;;41.60;47.30;;;;;;1932519;72;22232;-77
2023/07/23 15:32:39;;;;;;;13.30;11.90;;;41.50;44.40;;;;;;1902560;75;21235;-77
2023/07/23 15:38:10;;;;;;;12.93;11.55;;;41.30;43.70;;;;;;1953577;72;22217;-77
2023/07/23 15:41:01;;;;;;;13.18;11.85;;;41.40;43.60;;;;;;1873018;75;21113;-78
2023/07/23 15:43:52;;;;;;;13.50;11.90;;;41.90;43.30;;;;;;1880970;75;21127;-77
2023/07/23 15:49:22;;;;;;;13.95;11.00;;;42.40;40.50;;;;;;1939306;72;22204;-78
2023/07/23 15:52:15;;;;;;;11.60;10.45;;;42.80;38.80;;;;;;1878509;75;21202;-77
2023/07/23 15:55:07;;;;;;;11.85;10.65;;;42.50;37.70;;;;;;1859196;76;21141;-78
2023/07/23 15:57:58;;;;;;;11.03;9.90;;;43.20;36.70;;;;;;1882511;75;21159;-77
2023/07/23 16:00:49;;;;;;;12.70;10.43;;;43.40;36.20;;;;;;1925746;73;21186;-77
2023/07/23 16:03:41;;;;;;;10.45;9.38;;;43.90;35.30;;;;;;1933790;73;21637;-77
2023/07/23 16:06:33;;;;;;;10.05;9.00;;;43.60;35.00;;;;;;1932862;73;21154;-77
2023/07/23 16:09:24;;;;;;;10.00;9.00;;;44.00;34.50;;;;;;1942021;73;21149;-77
2023/07/23 16:14:56;;;;;;;9.23;8.33;;;45.00;34.50;;;;;;1947076;72;22221;-77
2023/07/23 16:17:47;;;;;;;9.68;8.28;;;44.80;33.50;;;;;;1915992;74;21098;-77
2023/07/23 16:20:38;;;;;;;10.48;9.10;;;44.60;34.20;;;;;;1905007;75;21201;-79
2023/07/23 16:26:10;;;;;;;9.28;8.33;;;44.60;34.00;;;;;;1949166;72;22205;-79
2023/07/23 16:31:45;;;;;;;9.48;8.58;;;44.40;33.80;;;;;;1943422;72;22223;-77
2023/07/23 16:34:37;;;;;;;9.28;8.30;;;44.50;33.30;;;;;;1900485;75;21156;-77
2023/07/23 16:40:10;;;;;;;9.08;8.15;;;45.20;32.40;;;;;;1952509;72;22285;-79
2023/07/23 16:43:04;;;;;;;8.40;7.25;;;44.90;32.80;;;;;;1903021;74;21218;-77
2023/07/23 16:45:56;;;;;;;9.35;8.20;;;44.30;33.10;;;;;;1926684;74;21164;-77
2023/07/23 16:48:47;;;;;;;8.45;7.33;;;43.80;33.30;;;;;;1908037;74;21211;-77
2023/07/23 16:51:38;;;;;;;9.50;7.45;;;43.80;33.10;;;;;;1906443;74;21172;-77
2023/07/23 16:54:30;;;;;;;8.63;7.50;;;44.00;32.90;;;;;;1922530;73;21132;-77
2023/07/23 16:57:21;;;;;;;8.15;7.37;;;44.40;33.10;;;;;;1918353;73;21131;-77
2023/07/23 17:00:17;;;;;;;7.87;7.10;;;45.10;32.80;;;;;;1913082;74;21123;-77
2023/07/23 17:03:08;;;;;;;8.20;6.95;;;44.10;33.20;;;;;;1888895;75;21107;-77
2023/07/23 17:06:00;;;;;;;9.38;7.33;;;43.20;33.60;;;;;;1908727;74;21145;-77
2023/07/23 17:08:51;;;;;;;8.05;6.78;;;43.20;34.00;;;;;;1878909;74;21622;-77
2023/07/23 17:14:21;;;;;;;7.12;6.42;;;43.10;34.20;;;;;;1922184;72;22257;-77
2023/07/23 17:17:12;;;;;;;6.33;5.72;;;43.60;34.20;;;;;;1902964;75;21124;-77
2023/07/23 17:20:05;;;;;;;7.78;6.22;;;42.70;34.70;;;;;;1908672;75;21197;-78
2023/07/23 17:22:56;;;;;;;6.92;6.33;;;42.30;35.40;;;;;;1905168;74;21138;-77
2023/07/23 17:25:47;;;;;;;6.62;6.00;;;41.50;36.10;;;;;;1911166;75;21161;-77
2023/07/23 17:28:39;;;;;;;7.00;6.05;;;40.90;37.10;;;;;;1906869;74;21139;-77
2023/07/23 17:31:30;;;;;;;5.95;5.33;;;40.50;37.70;;;;;;1910049;74;21172;-77
2023/07/23 17:34:22;;;;;;;5.97;5.03;;;39.90;38.40;;;;;;1910370;74;21122;-78
2023/07/23 17:39:52;;;;;;;6.47;5.20;;;38.80;40.60;;;;;;1950710;72;22402;-79
2023/07/23 17:42:45;;;;;;;7.37;5.22;;;38.30;44.40;;;;;;1917799;73;21481;-79
2023/07/23 17:45:36;;;;;;;6.08;5.47;;;37.60;46.20;;;;;;1922021;73;21174;-78
2023/07/23 17:48:27;;;;;;;5.22;4.50;;;37.10;48.20;;;;;;1924953;73;21106;-78
2023/07/23 17:51:18;;;;;;;5.30;4.50;;;36.50;49.50;;;;;;1919834;73;21171;-78
2023/07/23 17:56:49;;;;;;;5.35;4.22;;;36.00;51.00;;;;;;1941417;72;22144;-77
2023/07/23 17:59:40;;;;;;;6.03;4.50;;;36.00;51.40;;;;;;1931896;73;21212;-76
2023/07/23 18:05:11;;;;;;;5.78;4.70;;;35.70;52.80;;;;;;1938484;72;22225;-77
2023/07/23 18:08:03;;;;;;;6.45;4.10;;;35.60;52.70;;;;;;1889741;75;21221;-76
2023/07/23 18:10:54;;;;;;;5.35;4.35;;;35.70;52.80;;;;;;1880627;75;21145;-76
2023/07/23 18:13:46;;;;;;;4.60;4.10;;;35.30;53.40;;;;;;1892437;75;21062;-76
2023/07/23 18:19:15;;;;;;;6.03;4.12;;;35.20;53.50;;;;;;1946583;72;22244;-77
2023/07/23 18:22:07;;;;;;;6.25;3.90;;;34.80;54.20;;;;;;1907586;75;21548;-77
2023/07/23 18:24:59;;;;;;;4.80;4.30;;;34.40;55.10;;;;;;1913338;75;21191;-77
2023/07/23 18:27:51;;;;;;;6.05;3.92;;;34.00;55.80;;;;;;1897665;75;21231;-77
2023/07/23 18:30:45;;;;;;;5.20;4.25;;;33.70;56.40;;;;;;1899581;75;21090;-77
2023/07/23 18:36:17;;;;;;;5.15;4.42;;;33.30;57.40;;;;;;1929232;72;22319;-77